createdAt,value
2022-12-25T00:00:20.728Z,53.20
2022-12-25T00:02:49.398Z,88.03
2022-12-25T00:05:17.449Z,73.47
2022-12-25T00:07:45.324Z,66.45
2022-12-25T00:10:13.426Z,64.53
2022-12-25T00:12:41.304Z,54.25
2022-12-25T00:15:09.954Z,65.15
2022-12-25T00:17:37.864Z,60.42
2022-12-25T00:20:06.708Z,58.05
2022-12-25T00:22:35.320Z,53.17
2022-12-25T00:25:03.411Z,51.72
2022-12-25T00:27:35.154Z,45.20
2022-12-25T00:30:03.003Z,41.92
2022-12-25T00:32:31.029Z,42.97
2022-12-25T00:34:58.714Z,41.97
2022-12-25T00:37:26.368Z,54.40
2022-12-25T00:39:54.084Z,41.17
2022-12-25T00:42:22.195Z,41.60
2022-12-25T00:44:50.910Z,21.52
2022-12-25T00:47:18.958Z,28.13
2022-12-25T00:49:46.779Z,24.90
2022-12-25T00:52:14.856Z,15.48
2022-12-25T00:54:42.623Z,17.20
2022-12-25T00:57:10.297Z,21.83
2022-12-25T00:59:37.968Z,23.98
2022-12-25T01:02:35.200Z,22.13
2022-12-25T01:05:03.410Z,20.45
2022-12-25T01:07:31.391Z,27.02
2022-12-25T01:10:19.291Z,23.80
2022-12-25T01:12:47.066Z,32.60
2022-12-25T01:15:14.932Z,38.72
2022-12-25T01:17:44.834Z,32.17
2022-12-25T01:20:15.301Z,31.52
2022-12-25T01:25:12.728Z,31.75
2022-12-25T01:27:42.132Z,48.00
2022-12-25T01:30:10.399Z,33.90
2022-12-25T01:32:38.200Z,33.80
2022-12-25T01:35:06.567Z,28.90
2022-12-25T01:37:34.308Z,31.35
2022-12-25T01:40:02.052Z,22.42
2022-12-25T01:42:30.301Z,20.42
2022-12-25T01:44:58.021Z,48.65
2022-12-25T01:47:25.824Z,35.28
2022-12-25T01:49:53.774Z,30.77
2022-12-25T01:52:25.456Z,45.05
2022-12-25T01:55:00.999Z,32.83
2022-12-25T01:57:35.109Z,48.40
2022-12-25T02:00:04.508Z,37.80
2022-12-25T02:02:32.994Z,41.38
2022-12-25T02:05:13.398Z,43.58
2022-12-25T02:07:42.612Z,51.42
2022-12-25T02:10:12.262Z,38.80
2022-12-25T02:12:41.368Z,43.35
2022-12-25T02:15:17.439Z,41.50
2022-12-25T02:17:57.440Z,46.58
2022-12-25T02:20:33.471Z,36.38
2022-12-25T02:23:22.302Z,23.85
2022-12-25T02:26:21.508Z,40.75
2022-12-25T02:29:12.223Z,29.88
2022-12-25T02:32:07.654Z,26.23
2022-12-25T02:34:36.842Z,34.22
2022-12-25T02:37:15.360Z,29.45
2022-12-25T02:39:58.304Z,33.55
2022-12-25T02:43:23.111Z,29.98
2022-12-25T02:46:19.212Z,21.88
2022-12-25T02:49:14.034Z,26.80
2022-12-25T02:52:05.774Z,27.02
2022-12-25T02:54:56.684Z,17.75
2022-12-25T02:57:54.236Z,15.65
2022-12-25T03:00:40.713Z,64.22
2022-12-25T03:03:29.705Z,25.58
2022-12-25T03:06:20.520Z,36.88
2022-12-25T03:08:54.554Z,30.10
2022-12-25T03:11:31.507Z,25.65
2022-12-25T03:14:26.578Z,26.85
2022-12-25T03:16:57.937Z,27.50
2022-12-25T03:19:49.480Z,28.63
2022-12-25T03:22:44.091Z,22.42
2022-12-25T03:25:30.925Z,24.05
2022-12-25T03:27:59.530Z,25.15
2022-12-25T03:31:03.317Z,32.75
2022-12-25T03:34:08.783Z,21.15
2022-12-25T03:36:48.379Z,30.63
2022-12-25T03:39:59.343Z,34.57
2022-12-25T03:42:55.799Z,35.58
2022-12-25T03:45:51.715Z,29.02
2022-12-25T03:48:43.390Z,41.83
2022-12-25T03:51:32.019Z,37.05
2022-12-25T03:54:24.529Z,39.53
2022-12-25T03:57:10.995Z,34.63
2022-12-25T03:59:57.756Z,23.95
2022-12-25T04:02:44.411Z,33.17
2022-12-25T04:05:30.740Z,29.67
2022-12-25T04:08:16.915Z,43.38
2022-12-25T04:11:03.520Z,36.85
2022-12-25T04:13:49.759Z,35.47
2022-12-25T04:16:36.236Z,24.08
2022-12-25T04:19:22.478Z,25.42
2022-12-25T04:22:08.627Z,33.13
2022-12-25T04:24:54.922Z,26.92
2022-12-25T04:27:41.147Z,38.95
2022-12-25T04:30:28.396Z,45.88
2022-12-25T04:33:18.160Z,37.22
2022-12-25T04:36:07.717Z,24.23
2022-12-25T04:38:36.036Z,25.10
2022-12-25T04:41:04.081Z,19.38
2022-12-25T04:43:31.778Z,18.52
2022-12-25T04:46:02.134Z,15.07
2022-12-25T04:50:59.022Z,21.50
2022-12-25T04:53:26.738Z,22.83
2022-12-25T04:56:01.746Z,24.00
2022-12-25T04:58:29.810Z,30.48
2022-12-25T05:01:00.830Z,17.70
2022-12-25T05:03:29.225Z,20.38
2022-12-25T05:05:57.043Z,14.75
2022-12-25T05:08:24.783Z,13.88
2022-12-25T05:10:52.541Z,17.52
2022-12-25T05:13:20.537Z,20.38
2022-12-25T05:15:48.345Z,25.77
2022-12-25T05:18:16.159Z,69.03
2022-12-25T05:20:51.131Z,121.75
2022-12-25T05:23:19.169Z,36.63
2022-12-25T05:25:46.903Z,36.83
2022-12-25T05:28:14.680Z,26.08
2022-12-25T05:30:42.873Z,19.20
2022-12-25T05:33:10.969Z,10.35
2022-12-25T05:35:39.981Z,26.00
2022-12-25T05:38:08.441Z,53.92
2022-12-25T05:40:40.329Z,101.32
2022-12-25T05:43:08.289Z,412.08
2022-12-25T05:45:36.448Z,131.55
2022-12-25T05:48:04.335Z,85.07
2022-12-25T05:50:32.072Z,108.57
2022-12-25T05:53:08.494Z,283.52
2022-12-25T05:55:37.775Z,103.90
2022-12-25T05:58:06.579Z,55.97
2022-12-25T06:00:35.342Z,178.73
2022-12-25T06:03:03.440Z,212.60
2022-12-25T06:05:31.904Z,55.92
2022-12-25T06:07:59.700Z,36.08
2022-12-25T06:10:27.299Z,61.00
2022-12-25T06:12:55.391Z,80.35
2022-12-25T06:15:23.013Z,77.82
2022-12-25T06:17:50.770Z,63.38
2022-12-25T06:20:18.685Z,67.88
2022-12-25T06:22:46.593Z,87.80
2022-12-25T06:25:14.577Z,138.60
2022-12-25T06:27:42.323Z,76.88
2022-12-25T06:30:10.491Z,131.98
2022-12-25T06:32:38.510Z,53.88
2022-12-25T06:35:06.870Z,111.38
2022-12-25T06:37:34.514Z,99.82
2022-12-25T06:40:02.320Z,38.55
2022-12-25T06:42:30.505Z,43.80
2022-12-25T06:44:58.117Z,82.43
2022-12-25T06:47:26.062Z,69.68
2022-12-25T06:49:53.957Z,94.65
2022-12-25T06:52:21.573Z,41.95
2022-12-25T06:54:49.373Z,66.95
2022-12-25T06:57:19.416Z,62.50
2022-12-25T06:59:51.371Z,35.35
2022-12-25T07:02:24.670Z,41.58
2022-12-25T07:04:54.103Z,40.63
2022-12-25T07:07:23.739Z,32.17
2022-12-25T07:09:51.562Z,140.02
2022-12-25T07:12:24.262Z,142.90
2022-12-25T07:14:55.184Z,43.70
2022-12-25T07:17:24.485Z,84.18
2022-12-25T07:19:52.706Z,27.80
2022-12-25T07:22:20.410Z,25.30
2022-12-25T07:24:48.370Z,57.38
2022-12-25T07:27:16.294Z,41.50
2022-12-25T07:29:43.968Z,88.63
2022-12-25T07:32:12.844Z,254.65
2022-12-25T07:34:40.754Z,135.18
2022-12-25T07:37:08.546Z,99.95
2022-12-25T07:39:36.626Z,198.55
2022-12-25T07:42:05.071Z,136.55
2022-12-25T07:44:33.393Z,97.63
2022-12-25T07:47:01.580Z,228.75
2022-12-25T07:49:29.906Z,48.50
2022-12-25T07:51:58.115Z,60.28
2022-12-25T07:54:26.163Z,165.32
2022-12-25T07:56:54.354Z,103.85
2022-12-25T07:59:22.509Z,261.85
2022-12-25T08:01:51.157Z,178.82
2022-12-25T08:04:19.449Z,300.42
2022-12-25T08:06:47.522Z,159.38
2022-12-25T08:09:15.580Z,335.20
2022-12-25T08:11:49.599Z,328.55
2022-12-25T08:14:17.434Z,279.77
2022-12-25T08:16:47.341Z,107.55
2022-12-25T08:19:15.793Z,232.70
2022-12-25T08:21:45.117Z,300.67
2022-12-25T08:24:12.958Z,164.52
2022-12-25T08:26:40.673Z,125.28
2022-12-25T08:29:08.850Z,316.27
2022-12-25T08:31:42.472Z,78.15
2022-12-25T08:34:14.145Z,130.88
2022-12-25T08:36:42.260Z,122.43
2022-12-25T08:39:11.269Z,170.40
2022-12-25T08:41:39.605Z,75.38
2022-12-25T08:44:07.569Z,85.72
2022-12-25T08:46:35.461Z,257.65
2022-12-25T08:49:03.746Z,348.88
2022-12-25T08:51:31.821Z,99.82
2022-12-25T08:54:02.467Z,266.10
2022-12-25T08:56:30.845Z,63.22
2022-12-25T08:58:58.581Z,76.28
2022-12-25T09:01:26.901Z,163.30
2022-12-25T09:03:54.895Z,249.98
2022-12-25T09:06:22.899Z,229.93
2022-12-25T09:08:50.973Z,161.63
2022-12-25T09:11:20.419Z,223.73
2022-12-25T09:13:49.086Z,166.63
2022-12-25T09:16:20.475Z,102.78
2022-12-25T09:18:49.151Z,79.78
2022-12-25T09:21:18.056Z,74.60
2022-12-25T09:23:45.989Z,66.22
2022-12-25T09:26:16.433Z,85.10
2022-12-25T09:31:21.640Z,39.92
2022-12-25T09:33:50.511Z,260.03
2022-12-25T09:36:23.685Z,248.40
2022-12-25T09:38:53.088Z,297.90
2022-12-25T09:41:32.100Z,67.05
2022-12-25T09:44:17.237Z,117.28
2022-12-25T09:46:54.245Z,63.90
2022-12-25T09:49:30.807Z,97.78
2022-12-25T09:52:04.941Z,62.20
2022-12-25T09:54:59.726Z,87.20
2022-12-25T09:57:27.603Z,37.97
2022-12-25T09:59:56.688Z,42.75
2022-12-25T10:02:37.665Z,40.80
2022-12-25T10:05:18.250Z,36.28
2022-12-25T10:10:49.192Z,22.50
2022-12-25T10:13:48.755Z,22.75
2022-12-25T10:20:08.466Z,19.85
2022-12-25T10:22:44.359Z,22.75
2022-12-25T10:25:20.847Z,30.10
2022-12-25T10:27:58.765Z,19.63
2022-12-25T10:30:28.964Z,17.75
2022-12-25T10:32:58.391Z,19.92
2022-12-25T10:35:29.014Z,18.40
2022-12-25T10:38:19.911Z,20.42
2022-12-25T10:41:03.325Z,26.25
2022-12-25T10:43:49.320Z,24.45
2022-12-25T10:46:19.194Z,28.77
2022-12-25T10:49:03.316Z,33.80
2022-12-25T10:51:35.243Z,26.98
2022-12-25T10:54:25.540Z,37.65
2022-12-25T10:56:55.990Z,39.85
2022-12-25T11:01:55.344Z,40.88
2022-12-25T11:04:28.917Z,43.53
2022-12-25T11:07:06.870Z,40.50
2022-12-25T11:09:35.401Z,48.33
2022-12-25T11:12:03.530Z,48.45
2022-12-25T11:14:34.539Z,49.67
2022-12-25T11:17:10.101Z,49.30
2022-12-25T11:19:41.019Z,54.30
2022-12-25T11:24:45.222Z,44.22
2022-12-25T11:27:28.803Z,39.75
2022-12-25T11:30:04.455Z,38.20
2022-12-25T11:32:36.552Z,37.20
2022-12-25T11:35:17.802Z,38.03
2022-12-25T11:37:51.719Z,42.42
2022-12-25T11:40:30.709Z,35.67
2022-12-25T11:43:09.174Z,40.50
2022-12-25T11:45:59.971Z,42.10
2022-12-25T11:48:37.227Z,44.35
2022-12-25T11:51:07.974Z,30.98
2022-12-25T11:53:39.996Z,31.88
2022-12-25T11:56:12.135Z,22.88
2022-12-25T11:58:45.384Z,31.35
2022-12-25T12:01:39.202Z,29.45
2022-12-25T12:04:25.816Z,37.22
2022-12-25T12:07:18.645Z,53.60
2022-12-25T12:10:04.582Z,49.63
2022-12-25T12:12:48.302Z,34.45
2022-12-25T12:15:45.636Z,33.42
2022-12-25T12:18:30.339Z,23.95
2022-12-25T12:21:22.163Z,29.55
2022-12-25T12:24:07.497Z,39.40
2022-12-25T12:26:39.636Z,36.63
2022-12-25T12:29:19.922Z,30.65
2022-12-25T12:31:49.895Z,30.00
2022-12-25T12:34:35.141Z,28.48
2022-12-25T12:37:11.858Z,35.00
2022-12-25T12:39:42.407Z,35.05
2022-12-25T12:42:17.176Z,46.85
2022-12-25T12:44:48.433Z,51.42
2022-12-25T12:47:35.497Z,26.13
2022-12-25T12:50:04.722Z,88.20
2022-12-25T12:52:39.081Z,74.78
2022-12-25T12:55:13.576Z,43.90
2022-12-25T12:57:43.179Z,31.55
2022-12-25T13:00:19.678Z,29.10
2022-12-25T13:03:15.732Z,32.38
2022-12-25T13:06:03.215Z,36.47
2022-12-25T13:08:53.051Z,31.20
2022-12-25T13:11:25.445Z,24.52
2022-12-25T13:13:55.802Z,25.38
2022-12-25T13:16:35.262Z,35.65
2022-12-25T13:19:16.103Z,28.70
2022-12-25T13:21:55.713Z,39.75
2022-12-25T13:24:33.254Z,63.22
2022-12-25T13:27:03.061Z,86.05
2022-12-25T13:29:40.492Z,69.82
2022-12-25T13:32:35.709Z,92.55
2022-12-25T13:35:05.749Z,62.17
2022-12-25T13:37:34.503Z,66.57
2022-12-25T13:40:07.271Z,55.35
2022-12-25T13:42:39.005Z,48.60
2022-12-25T13:45:13.815Z,38.38
2022-12-25T13:47:53.075Z,88.05
2022-12-25T13:50:31.163Z,84.97
2022-12-25T13:53:14.862Z,103.97
2022-12-25T13:55:52.923Z,119.25
2022-12-25T13:58:29.932Z,97.18
2022-12-25T14:01:01.678Z,68.32
2022-12-25T14:03:37.781Z,114.85
2022-12-25T14:06:21.286Z,112.53
2022-12-25T14:08:50.455Z,103.63
2022-12-25T14:11:21.251Z,109.13
2022-12-25T14:13:52.906Z,91.63
2022-12-25T14:16:22.219Z,91.38
2022-12-25T14:18:59.448Z,88.45
2022-12-25T14:21:50.191Z,92.32
2022-12-25T14:24:21.351Z,98.72
2022-12-25T14:27:01.205Z,80.30
2022-12-25T14:29:37.984Z,84.43
2022-12-25T14:32:18.215Z,92.07
2022-12-25T14:34:48.112Z,88.28
2022-12-25T14:37:23.427Z,68.32
2022-12-25T14:39:57.746Z,63.13
2022-12-25T14:42:31.609Z,83.90
2022-12-25T14:45:05.247Z,77.80
2022-12-25T14:47:50.395Z,82.55
2022-12-25T14:50:37.610Z,74.43
2022-12-25T14:53:17.833Z,95.32
2022-12-25T14:55:54.500Z,87.80
2022-12-25T14:58:26.055Z,87.43
2022-12-25T15:01:05.084Z,76.97
2022-12-25T15:03:37.230Z,86.78
2022-12-25T15:06:22.939Z,86.20
2022-12-25T15:09:02.149Z,95.78
2022-12-25T15:11:30.910Z,77.07
2022-12-25T15:13:58.841Z,75.18
2022-12-25T15:16:34.669Z,128.15
2022-12-25T15:19:02.860Z,108.50
2022-12-25T15:21:33.879Z,81.95
2022-12-25T15:24:01.755Z,88.88
2022-12-25T15:26:31.709Z,92.32
2022-12-25T15:28:59.613Z,107.75
2022-12-25T15:31:33.771Z,64.50
2022-12-25T15:34:04.301Z,159.45
2022-12-25T15:36:32.774Z,215.82
2022-12-25T15:39:02.459Z,98.88
2022-12-25T15:41:55.535Z,80.50
2022-12-25T15:44:25.900Z,122.38
2022-12-25T15:46:54.012Z,336.95
2022-12-25T15:49:21.887Z,246.43
2022-12-25T15:55:47.580Z,200.80
2022-12-25T15:58:15.934Z,200.40
2022-12-25T16:00:43.884Z,229.15
2022-12-25T16:03:11.986Z,139.45
2022-12-25T16:05:40.175Z,142.80
2022-12-25T16:08:09.616Z,130.07
2022-12-25T16:10:39.193Z,110.18
2022-12-25T16:13:08.861Z,123.28
2022-12-25T16:15:39.212Z,119.53
2022-12-25T16:18:07.928Z,116.72
2022-12-25T16:20:36.283Z,120.45
2022-12-25T16:23:07.602Z,149.18
2022-12-25T16:25:36.349Z,199.05
2022-12-25T16:28:04.591Z,206.15
2022-12-25T16:30:32.385Z,167.48
2022-12-25T16:33:07.098Z,152.55
2022-12-25T16:35:41.727Z,125.75
2022-12-25T16:38:09.469Z,119.95
2022-12-25T16:40:37.295Z,102.97
2022-12-25T16:43:05.310Z,153.85
2022-12-25T16:45:39.317Z,116.25
2022-12-25T16:48:14.226Z,108.68
2022-12-25T16:50:47.509Z,121.82
2022-12-25T16:53:16.676Z,205.15
2022-12-25T16:55:44.381Z,149.63
2022-12-25T16:58:12.347Z,134.55
2022-12-25T17:00:44.237Z,160.68
2022-12-25T17:03:17.277Z,164.15
2022-12-25T17:05:45.352Z,162.02
2022-12-25T17:08:13.107Z,122.93
2022-12-25T17:10:41.016Z,210.13
2022-12-25T17:13:08.778Z,152.32
2022-12-25T17:15:36.898Z,104.07
2022-12-25T17:18:05.116Z,117.32
2022-12-25T17:20:33.296Z,149.80
2022-12-25T17:23:01.449Z,121.43
2022-12-25T17:25:29.120Z,87.03
2022-12-25T17:27:56.986Z,186.52
2022-12-25T17:30:25.187Z,102.90
2022-12-25T17:32:53.414Z,111.78
2022-12-25T17:35:21.641Z,132.93
2022-12-25T17:37:49.511Z,112.40
2022-12-25T17:40:17.677Z,90.90
2022-12-25T17:42:45.467Z,105.82
2022-12-25T17:45:13.551Z,103.20
2022-12-25T17:47:41.394Z,98.68
2022-12-25T17:50:10.576Z,90.20
2022-12-25T17:52:38.651Z,90.55
2022-12-25T17:55:07.469Z,85.90
2022-12-25T17:57:35.394Z,82.15
2022-12-25T18:00:04.385Z,74.07
2022-12-25T18:02:32.868Z,71.78
2022-12-25T18:05:01.034Z,93.72
2022-12-25T18:07:29.262Z,92.55
2022-12-25T18:09:57.635Z,82.53
2022-12-25T18:12:26.697Z,105.72
2022-12-25T18:14:54.879Z,100.72
2022-12-25T18:17:23.671Z,80.40
2022-12-25T18:19:52.084Z,84.45
2022-12-25T18:22:20.219Z,82.45
2022-12-25T18:24:53.186Z,89.05
2022-12-25T18:27:21.486Z,92.50
2022-12-25T18:29:49.479Z,93.22
2022-12-25T18:32:17.345Z,112.90
2022-12-25T18:34:45.464Z,104.00
2022-12-25T18:37:13.613Z,104.93
2022-12-25T18:39:41.889Z,88.55
2022-12-25T18:42:29.160Z,78.90
2022-12-25T18:45:00.222Z,94.75
2022-12-25T18:47:28.264Z,86.38
2022-12-25T18:49:56.750Z,91.07
2022-12-25T18:52:48.031Z,98.82
2022-12-25T18:55:16.354Z,78.97
2022-12-25T18:57:44.603Z,92.13
2022-12-25T19:00:12.772Z,88.07
2022-12-25T19:02:41.153Z,126.63
2022-12-25T19:05:09.200Z,119.72
2022-12-25T19:07:38.156Z,103.65
2022-12-25T19:10:07.597Z,100.30
2022-12-25T19:12:36.139Z,83.65
2022-12-25T19:15:04.319Z,74.97
2022-12-25T19:17:32.690Z,76.53
2022-12-25T19:20:05.771Z,83.45
2022-12-25T19:22:35.029Z,78.25
2022-12-25T19:25:03.314Z,67.32
2022-12-25T19:27:32.819Z,71.30
2022-12-25T19:30:02.243Z,77.13
2022-12-25T19:32:30.515Z,50.25
2022-12-25T19:35:01.705Z,72.38
2022-12-25T19:37:30.644Z,72.75
2022-12-25T19:39:59.691Z,69.18
2022-12-25T19:42:28.162Z,71.15
2022-12-25T19:44:56.231Z,81.55
2022-12-25T19:47:25.669Z,89.70
2022-12-25T19:49:54.966Z,79.32
2022-12-25T19:52:26.858Z,79.53
2022-12-25T19:54:55.641Z,80.18
2022-12-25T19:57:24.538Z,74.47
2022-12-25T19:59:54.460Z,82.78
2022-12-25T20:02:26.552Z,82.70
2022-12-25T20:04:55.047Z,85.97
2022-12-25T20:07:25.145Z,81.03
2022-12-25T20:09:56.008Z,92.95
2022-12-25T20:12:25.712Z,103.03
2022-12-25T20:14:55.650Z,89.93
2022-12-25T20:17:23.942Z,73.50
2022-12-25T20:19:53.289Z,59.00
2022-12-25T20:22:21.998Z,66.47
2022-12-25T20:24:50.355Z,78.47
2022-12-25T20:27:20.210Z,78.53
2022-12-25T20:29:48.680Z,80.00
2022-12-25T20:32:17.635Z,70.97
2022-12-25T20:34:45.840Z,70.97
2022-12-25T20:37:16.987Z,64.03
2022-12-25T20:39:47.256Z,55.35
2022-12-25T20:42:17.353Z,63.65
2022-12-25T20:44:45.748Z,52.33
2022-12-25T20:47:13.758Z,53.78
2022-12-25T20:49:42.082Z,56.47
2022-12-25T20:52:11.866Z,51.55
2022-12-25T20:54:42.609Z,53.63
2022-12-25T20:57:11.059Z,58.35
2022-12-25T20:59:40.440Z,51.13
2022-12-25T21:02:33.291Z,39.20
2022-12-25T21:05:01.758Z,55.00
2022-12-25T21:07:29.786Z,45.80
2022-12-25T21:09:59.875Z,54.47
2022-12-25T21:12:27.749Z,51.88
2022-12-25T21:14:55.979Z,48.58
2022-12-25T21:17:24.292Z,49.30
2022-12-25T21:19:52.132Z,45.25
2022-12-25T21:22:20.797Z,48.42
2022-12-25T21:24:52.556Z,46.50
2022-12-25T21:27:20.595Z,54.13
2022-12-25T21:29:48.623Z,45.90
2022-12-25T21:32:37.824Z,55.78
2022-12-25T21:35:06.686Z,50.35
2022-12-25T21:37:35.682Z,52.20
2022-12-25T21:40:03.730Z,54.97
2022-12-25T21:42:34.283Z,50.38
2022-12-25T21:45:03.254Z,59.28
2022-12-25T21:48:02.046Z,50.70
2022-12-25T21:50:39.451Z,52.95
2022-12-25T21:53:09.002Z,45.58
2022-12-25T21:55:36.726Z,49.58
2022-12-25T21:58:06.629Z,43.65
2022-12-25T22:00:34.711Z,39.88
2022-12-25T22:03:03.099Z,39.25
2022-12-25T22:05:49.607Z,38.78
2022-12-25T22:08:17.971Z,45.08
2022-12-25T22:10:47.382Z,52.20
2022-12-25T22:13:34.076Z,58.08
2022-12-25T22:16:25.017Z,51.72
2022-12-25T22:19:11.334Z,52.00
2022-12-25T22:21:40.300Z,52.40
2022-12-25T22:24:08.724Z,47.30
2022-12-25T22:26:37.043Z,50.72
2022-12-25T22:29:05.248Z,47.75
2022-12-25T22:31:33.345Z,43.60
2022-12-25T22:34:01.665Z,40.00
2022-12-25T22:36:29.849Z,41.08
2022-12-25T22:38:57.856Z,44.95
2022-12-25T22:41:29.871Z,40.38
2022-12-25T22:44:18.136Z,38.15
2022-12-25T22:46:46.576Z,38.15
2022-12-25T22:49:16.255Z,40.47
2022-12-25T22:51:47.951Z,38.80
2022-12-25T22:54:17.717Z,39.67
2022-12-25T22:56:47.883Z,36.05
2022-12-25T22:59:20.510Z,44.75
2022-12-25T23:01:52.638Z,41.50
2022-12-25T23:04:20.780Z,53.65
2022-12-25T23:06:48.636Z,50.30
2022-12-25T23:09:24.224Z,60.42
2022-12-25T23:11:52.729Z,50.65
2022-12-25T23:14:39.074Z,40.13
2022-12-25T23:17:31.396Z,45.90
2022-12-25T23:20:20.662Z,67.05
2022-12-25T23:23:07.396Z,53.53
2022-12-25T23:25:54.154Z,55.13
2022-12-25T23:28:40.997Z,62.25
2022-12-25T23:31:09.702Z,61.08
2022-12-25T23:33:37.515Z,59.22
2022-12-25T23:36:06.221Z,58.13
2022-12-25T23:38:34.073Z,53.65
2022-12-25T23:41:01.569Z,50.85
2022-12-25T23:43:29.501Z,59.35
2022-12-25T23:45:57.312Z,51.22
2022-12-25T23:48:24.949Z,51.88
2022-12-25T23:50:52.786Z,57.15
2022-12-25T23:53:20.790Z,54.42
2022-12-25T23:55:55.345Z,50.53
2022-12-25T23:58:28.138Z,52.72
